Terminal Aerodrome Forecast
Issued by NWS Spokane, WA

Home | Current Version | Previous Version | Text Only | Print | Product List | Glossary On
Versions: 1 2 3 4 5 6 7 8 9 10 11 12 13 14 15 16 17 18 19 20 21 22 23 24 25 26 27 28 29 30
000
FTUS46 KOTX 181022 AAB
TAFGEG
TAF AMD
KGEG 181022Z 1810/1906 19004KT P6SM VCSH BKN006 OVC030
     FM181200 16004KT 3SM BR SCT005 OVC009
     FM181800 17006KT P6SM BKN009 OVC020
     FM182000 15006KT P6SM SCT025 OVC040=

USA.gov is the U.S. government's official web portal to all federal, state and local government web resources and services.